Time;durP1;ratioP1;P1;durP2;ratioP2;P2;SDS_P1;SDS_P2;PMS_P1;PMS_P2;Temp;Humidity;BMP_temperature;BMP_pressure;BME280_temperature;BME280_humidity;BME280_pressure;Samples;Min_cycle;Max_cycle;Signal;HPM_P1;HPM_P2
2023/08/21 00:00:24;;;;;;;;;2.00;2.00;;;;;-143.47;100.00;63865.75;2098141;28;46502;-66
2023/08/21 00:01:24;;;;;;;;;2.00;2.00;;;;;-143.47;100.00;63865.75;2101575;28;46480;-66
2023/08/21 00:02:27;;;;;;;;;1.67;1.67;;;;;-143.47;100.00;63865.75;2100156;27;46880;-65
2023/08/21 00:03:28;;;;;;;;;2.00;2.00;;;;;-143.47;100.00;63865.75;2104567;28;46358;-66
2023/08/21 00:04:28;;;;;;;;;0.00;0.00;;;;;-143.47;100.00;63865.75;2100434;27;46010;-67
2023/08/21 00:05:28;;;;;;;;;1.00;1.00;;;;;-143.47;100.00;63865.75;2104214;27;46004;-67
2023/08/21 00:06:29;;;;;;;;;2.25;2.25;;;;;-143.47;100.00;63865.75;2102538;28;46644;-66
2023/08/21 00:07:29;;;;;;;;;2.25;2.00;;;;;-143.47;100.00;63865.75;2100943;27;46580;-65
2023/08/21 00:08:29;;;;;;;;;5.00;4.25;;;;;-143.47;100.00;63865.75;2106414;27;46427;-66
2023/08/21 00:09:30;;;;;;;;;2.75;2.75;;;;;-143.47;100.00;63865.75;2101106;27;46684;-66
2023/08/21 00:10:31;;;;;;;;;1.00;1.00;;;;;-143.47;100.00;63865.75;2103289;27;46227;-66
2023/08/21 00:11:31;;;;;;;;;2.25;0.75;;;;;-143.47;100.00;63865.75;2096051;28;46679;-65
2023/08/21 00:12:32;;;;;;;;;0.00;0.00;;;;;-143.47;100.00;63865.75;2097444;28;45000;-65
2023/08/21 00:13:32;;;;;;;;;0.67;0.67;;;;;-143.47;100.00;63865.75;2098634;28;46101;-65
2023/08/21 00:14:32;;;;;;;;;1.00;1.00;;;;;-143.47;100.00;63865.75;2101928;28;46236;-65
2023/08/21 00:15:33;;;;;;;;;6.00;5.00;;;;;-143.47;100.00;63865.75;2100078;28;46954;-65
2023/08/21 00:16:34;;;;;;;;;3.00;3.00;;;;;-143.47;100.00;63865.75;2096744;28;46694;-66
2023/08/21 00:17:34;;;;;;;;;4.00;4.00;;;;;-143.47;100.00;63865.75;2098727;28;46673;-65
2023/08/21 00:18:35;;;;;;;;;5.00;4.25;;;;;-143.47;100.00;63865.75;2103499;27;47062;-67
2023/08/21 00:19:35;;;;;;;;;5.67;3.67;;;;;-143.47;100.00;63865.75;2102491;28;46541;-66
2023/08/21 00:20:35;;;;;;;;;5.25;5.00;;;;;-143.47;100.00;63865.75;2101154;27;46646;-65
2023/08/21 00:21:36;;;;;;;;;3.67;3.67;;;;;-143.47;100.00;63865.75;2103434;28;46705;-65
2023/08/21 00:22:36;;;;;;;;;1.00;1.00;;;;;-143.47;100.00;63865.75;2100361;28;46903;-66
2023/08/21 00:23:37;;;;;;;;;2.00;2.00;;;;;-143.47;100.00;63865.75;2101443;28;46337;-67
2023/08/21 00:24:37;;;;;;;;;7.50;7.50;;;;;-143.47;100.00;63865.75;2095002;28;46180;-66
2023/08/21 00:25:37;;;;;;;;;3.00;2.00;;;;;-143.47;100.00;63865.75;2081004;28;47021;-66
2023/08/21 00:26:37;;;;;;;;;1.33;1.33;;;;;-143.47;100.00;63865.75;2087276;28;46433;-66
2023/08/21 00:27:38;;;;;;;;;1.00;1.00;;;;;-143.47;100.00;63865.75;2101941;28;46894;-66
2023/08/21 00:28:38;;;;;;;;;0.00;0.00;;;;;-143.47;100.00;63865.75;2101347;27;47125;-67
2023/08/21 00:29:38;;;;;;;;;2.00;2.00;;;;;-143.47;100.00;63865.75;2105837;28;46094;-66
2023/08/21 00:30:39;;;;;;;;;3.00;2.33;;;;;-143.47;100.00;63865.75;2103731;27;46626;-67
2023/08/21 00:31:39;;;;;;;;;3.00;3.00;;;;;-143.47;100.00;63865.75;2097009;28;46671;-67
2023/08/21 00:32:40;;;;;;;;;5.00;4.00;;;;;-143.47;100.00;63865.75;2101967;28;46319;-67
2023/08/21 00:33:40;;;;;;;;;3.00;2.00;;;;;-143.47;100.00;63865.75;2099281;27;46550;-65
2023/08/21 00:34:40;;;;;;;;;3.00;3.00;;;;;-143.47;100.00;63865.75;2103927;28;46573;-66
2023/08/21 00:35:42;;;;;;;;;2.00;1.67;;;;;-143.47;100.00;63865.75;2100716;28;46467;-66
2023/08/21 00:36:42;;;;;;;;;4.00;3.25;;;;;-143.47;100.00;63865.75;2101065;27;46926;-66
2023/08/21 00:37:43;;;;;;;;;3.67;3.67;;;;;-143.47;100.00;63865.75;2107318;27;45446;-67
2023/08/21 00:38:43;;;;;;;;;2.67;2.67;;;;;-143.47;100.00;63865.75;2112919;27;46417;-66
2023/08/21 00:39:43;;;;;;;;;1.33;1.00;;;;;-143.47;100.00;63865.75;2097374;28;45508;-68
2023/08/21 00:40:44;;;;;;;;;1.67;1.67;;;;;-143.47;100.00;63865.75;2100350;28;46313;-66
2023/08/21 00:41:44;;;;;;;;;4.00;2.00;;;;;-143.47;100.00;63865.75;2096662;28;46190;-65
2023/08/21 00:42:44;;;;;;;;;3.33;3.00;;;;;-143.47;100.00;63865.75;2103095;28;46473;-65
2023/08/21 00:43:45;;;;;;;;;1.00;1.00;;;;;-143.47;100.00;63865.75;2099244;28;45230;-66
2023/08/21 00:44:45;;;;;;;;;1.00;1.00;;;;;-143.47;100.00;63865.75;2102212;28;46818;-65
2023/08/21 00:45:47;;;;;;;;;5.33;5.00;;;;;-143.47;100.00;63865.75;2102724;28;45952;-66
2023/08/21 00:46:47;;;;;;;;;2.00;0.75;;;;;-143.47;100.00;63865.75;2100196;27;46528;-66
2023/08/21 00:47:48;;;;;;;;;2.00;2.00;;;;;-143.47;100.00;63865.75;2103966;28;45652;-66
2023/08/21 00:48:48;;;;;;;;;2.00;2.00;;;;;-143.47;100.00;63865.75;2096686;28;46298;-66
2023/08/21 00:49:49;;;;;;;;;2.00;2.00;;;;;-143.47;100.00;63865.75;2097040;28;46988;-66
2023/08/21 00:50:50;;;;;;;;;2.00;2.00;;;;;-143.47;100.00;63865.75;2097100;28;46104;-65
2023/08/21 00:51:51;;;;;;;;;1.00;1.00;;;;;-143.47;100.00;63865.75;2097333;28;46580;-66
2023/08/21 00:52:51;;;;;;;;;1.25;1.25;;;;;-143.47;100.00;63865.75;2097235;28;46973;-66
2023/08/21 00:53:52;;;;;;;;;1.33;1.00;;;;;-143.47;100.00;63865.75;2103239;28;46454;-65
2023/08/21 00:54:52;;;;;;;;;1.00;1.00;;;;;-143.47;100.00;63865.75;2100699;27;46456;-67
2023/08/21 00:55:53;;;;;;;;;3.00;3.00;;;;;-143.47;100.00;63865.75;2103974;27;46755;-66
2023/08/21 00:56:54;;;;;;;;;2.33;2.33;;;;;-143.47;100.00;63865.75;2101868;28;46057;-66
2023/08/21 00:57:54;;;;;;;;;1.00;1.00;;;;;-143.47;100.00;63865.75;2100805;28;46516;-66
2023/08/21 00:58:55;;;;;;;;;2.33;2.00;;;;;-143.47;100.00;63865.75;2094456;28;46093;-66
2023/08/21 00:59:55;;;;;;;;;2.00;2.00;;;;;-143.47;100.00;63865.75;2091895;28;46621;-65
2023/08/21 01:00:57;;;;;;;;;1.00;1.00;;;;;-143.47;100.00;63865.75;2102714;28;45967;-66
2023/08/21 01:01:58;;;;;;;;;0.75;0.75;;;;;-143.47;100.00;63865.75;2101208;28;46326;-66
2023/08/21 01:02:58;;;;;;;;;3.00;1.00;;;;;-143.47;100.00;63865.75;2098081;28;45884;-66
2023/08/21 01:03:58;;;;;;;;;1.00;1.00;;;;;-143.47;100.00;63865.75;2104264;28;46739;-65
2023/08/21 01:04:59;;;;;;;;;3.00;2.00;;;;;-143.47;100.00;63865.75;2102220;28;46387;-65
2023/08/21 01:05:59;;;;;;;;;4.33;3.00;;;;;-143.47;100.00;63865.75;2100810;27;46850;-66
2023/08/21 01:07:00;;;;;;;;;1.00;1.00;;;;;-143.47;100.00;63865.75;2105542;27;46649;-65
2023/08/21 01:08:08;;;;;;;;;1.67;0.33;;;;;-143.47;100.00;63865.75;2100655;27;46805;-65
2023/08/21 01:09:31;;;;;;;;;1.00;1.00;;;;;-143.47;100.00;63865.75;2102169;28;45518;-66
2023/08/21 01:10:42;;;;;;;;;1.75;1.50;;;;;-143.47;100.00;63865.75;2105204;28;46699;-66
2023/08/21 01:11:58;;;;;;;;;2.50;1.00;;;;;-143.47;100.00;63865.75;2105357;28;45772;-66
2023/08/21 01:13:31;;;;;;;;;2.25;2.00;;;;;-143.47;100.00;63865.75;2102049;28;46467;-66
2023/08/21 01:14:42;;;;;;;;;1.50;1.00;;;;;-143.47;100.00;63865.75;2098637;28;46725;-66
2023/08/21 01:15:43;;;;;;;;;3.00;3.00;;;;;-143.47;100.00;63865.75;2101375;28;45842;-66
2023/08/21 01:16:48;;;;;;;;;1.00;1.00;;;;;-143.47;100.00;63865.75;2097255;28;46754;-67
2023/08/21 01:17:49;;;;;;;;;1.00;1.00;;;;;-143.47;100.00;63865.75;2100746;28;45418;-66
2023/08/21 01:18:50;;;;;;;;;0.50;0.50;;;;;-143.47;100.00;63865.75;2101516;27;46914;-66
2023/08/21 01:19:52;;;;;;;;;0.00;0.00;;;;;-143.47;100.00;63865.75;2104189;28;46194;-64
2023/08/21 01:20:54;;;;;;;;;0.50;0.50;;;;;-143.47;100.00;63865.75;2103854;27;46458;-66
2023/08/21 01:21:54;;;;;;;;;1.75;1.00;;;;;-143.47;100.00;63865.75;2097334;28;46605;-66
2023/08/21 01:22:55;;;;;;;;;0.00;0.00;;;;;-143.47;100.00;63865.75;2102646;28;46199;-67
2023/08/21 01:23:55;;;;;;;;;3.00;1.00;;;;;-143.47;100.00;63865.75;2099866;27;46353;-66
2023/08/21 01:24:55;;;;;;;;;1.67;1.67;;;;;-143.47;100.00;63865.75;2105061;27;46834;-67
2023/08/21 01:25:56;;;;;;;;;0.00;0.00;;;;;-143.47;100.00;63865.75;2100983;28;46909;-66
2023/08/21 01:26:56;;;;;;;;;0.00;0.00;;;;;-143.47;100.00;63865.75;2097310;27;46123;-65
2023/08/21 01:27:56;;;;;;;;;0.00;0.00;;;;;-143.47;100.00;63865.75;2104329;28;46464;-65
2023/08/21 01:28:57;;;;;;;;;1.00;1.00;;;;;-143.47;100.00;63865.75;2099961;27;46485;-65
2023/08/21 01:29:59;;;;;;;;;0.67;0.67;;;;;-143.47;100.00;63865.75;2101890;27;47139;-66
2023/08/21 01:31:33;;;;;;;;;2.00;0.75;;;;;-143.47;100.00;63865.75;2101517;28;46185;-65
2023/08/21 01:32:48;;;;;;;;;2.50;1.00;;;;;-143.47;100.00;63865.75;2092881;28;46385;-66
2023/08/21 01:33:53;;;;;;;;;0.00;0.00;;;;;-143.47;100.00;63865.75;2091494;28;46149;-66
2023/08/21 01:34:55;;;;;;;;;0.00;0.00;;;;;-143.47;100.00;63865.75;2089742;28;46284;-66
2023/08/21 01:35:58;;;;;;;;;0.25;0.25;;;;;-143.47;100.00;63865.75;2096085;28;46762;-67
2023/08/21 01:37:00;;;;;;;;;0.00;0.00;;;;;-143.47;100.00;63865.75;2090699;28;47087;-66
2023/08/21 01:38:02;;;;;;;;;0.00;0.00;;;;;-143.47;100.00;63865.75;2096258;28;46503;-66
2023/08/21 01:39:03;;;;;;;;;0.75;0.00;;;;;-143.47;100.00;63865.75;2096434;28;46392;-66
2023/08/21 01:40:05;;;;;;;;;0.75;0.50;;;;;-143.47;100.00;63865.75;2097511;28;46839;-65
2023/08/21 01:41:05;;;;;;;;;0.25;0.25;;;;;-143.47;100.00;63865.75;2099555;28;46181;-66
2023/08/21 01:42:05;;;;;;;;;0.00;0.00;;;;;-143.47;100.00;63865.75;2095873;28;46257;-66
2023/08/21 01:43:06;;;;;;;;;0.00;0.00;;;;;-143.47;100.00;63865.75;2088602;28;46812;-67
2023/08/21 01:44:06;;;;;;;;;1.67;1.67;;;;;-143.47;100.00;63865.75;2087506;28;46386;-66
2023/08/21 01:45:07;;;;;;;;;0.67;0.00;;;;;-143.47;100.00;63865.75;2095706;28;46097;-67
2023/08/21 01:46:08;;;;;;;;;0.00;0.00;;;;;-143.47;100.00;63865.75;2095731;28;46561;-66
2023/08/21 01:47:08;;;;;;;;;1.33;1.33;;;;;-143.47;100.00;63865.75;2093688;28;46378;-65
2023/08/21 01:48:09;;;;;;;;;1.00;1.00;;;;;-143.47;100.00;63865.75;2095023;28;46435;-65
2023/08/21 01:49:09;;;;;;;;;0.00;0.00;;;;;-143.47;100.00;63865.75;2095899;28;46344;-65
2023/08/21 01:50:09;;;;;;;;;1.00;0.00;;;;;-143.47;100.00;63865.75;2095820;28;46728;-66
2023/08/21 01:51:10;;;;;;;;;0.00;0.00;;;;;-143.47;100.00;63865.75;2095619;28;46322;-65
2023/08/21 01:52:10;;;;;;;;;0.00;0.00;;;;;-143.47;100.00;63865.75;2095854;28;46704;-66
2023/08/21 01:53:10;;;;;;;;;0.33;0.33;;;;;-143.47;100.00;63865.75;2095591;28;46830;-66
2023/08/21 01:54:11;;;;;;;;;2.00;1.00;;;;;-143.47;100.00;63865.75;2095161;28;44950;-66
2023/08/21 01:55:11;;;;;;;;;0.33;0.33;;;;;-143.47;100.00;63865.75;2095722;28;46293;-65
2023/08/21 01:56:12;;;;;;;;;0.67;0.00;;;;;-143.47;100.00;63865.75;2095695;28;47428;-65
2023/08/21 01:57:12;;;;;;;;;0.00;0.00;;;;;-143.47;100.00;63865.75;2095448;28;46678;-66
2023/08/21 01:58:12;;;;;;;;;0.00;0.00;;;;;-143.47;100.00;63865.75;2095727;28;46643;-65
2023/08/21 01:59:13;;;;;;;;;0.00;0.00;;;;;-143.47;100.00;63865.75;2096195;28;45200;-66
2023/08/21 02:00:13;;;;;;;;;1.00;1.00;;;;;-143.47;100.00;63865.75;2095423;28;46324;-65
2023/08/21 02:01:14;;;;;;;;;0.00;0.00;;;;;-143.47;100.00;63865.75;2095831;28;46714;-66
2023/08/21 02:02:14;;;;;;;;;0.00;0.00;;;;;-143.47;100.00;63865.75;2096600;28;46001;-66
2023/08/21 02:03:15;;;;;;;;;0.00;0.00;;;;;-143.47;100.00;63865.75;2096044;28;45983;-66
2023/08/21 02:04:15;;;;;;;;;0.00;0.00;;;;;-143.47;100.00;63865.75;2095982;28;46672;-67
2023/08/21 02:05:15;;;;;;;;;0.33;0.33;;;;;-143.47;100.00;63865.75;2096219;28;46246;-65
2023/08/21 02:06:15;;;;;;;;;0.00;0.00;;;;;-143.47;100.00;63865.75;2096080;28;45797;-65
2023/08/21 02:07:16;;;;;;;;;1.67;0.00;;;;;-143.47;100.00;63865.75;2095566;28;46598;-66
2023/08/21 02:08:17;;;;;;;;;0.00;0.00;;;;;-143.47;100.00;63865.75;2096045;28;46003;-66
2023/08/21 02:09:17;;;;;;;;;0.00;0.00;;;;;-143.47;100.00;63865.75;2096109;28;46956;-66
2023/08/21 02:10:18;;;;;;;;;0.00;0.00;;;;;-143.47;100.00;63865.75;2096054;28;46880;-66
2023/08/21 02:11:18;;;;;;;;;0.00;0.00;;;;;-143.47;100.00;63865.75;2097962;28;45727;-66
2023/08/21 02:12:19;;;;;;;;;1.00;1.00;;;;;-143.47;100.00;63865.75;2096739;28;47097;-66
2023/08/21 02:13:27;;;;;;;;;3.00;1.00;;;;;28.47;83.07;101708.47;2136622;27;44476;-66
2023/08/21 02:14:28;;;;;;;;;2.00;1.00;;;;;28.48;82.75;101702.00;2126927;27;45523;-66
2023/08/21 02:15:28;;;;;;;;;1.00;1.00;;;;;28.46;82.51;101702.13;2127854;27;46215;-66
2023/08/21 02:16:29;;;;;;;;;0.00;0.00;;;;;28.44;82.53;101702.22;2129447;27;46834;-65
2023/08/21 02:17:29;;;;;;;;;0.00;0.00;;;;;28.43;82.58;101695.03;2128178;27;46209;-64
2023/08/21 02:18:30;;;;;;;;;0.67;0.67;;;;;28.42;82.74;101695.16;2128647;27;46138;-65
2023/08/21 02:19:30;;;;;;;;;0.00;0.00;;;;;28.43;83.39;101700.50;2129113;27;46273;-66
2023/08/21 02:20:30;;;;;;;;;0.00;0.00;;;;;28.43;83.22;101697.75;2129195;27;46484;-66
2023/08/21 02:21:31;;;;;;;;;1.00;1.00;;;;;28.43;82.62;101692.28;2127534;27;45635;-65
2023/08/21 02:22:32;;;;;;;;;1.00;1.00;;;;;28.42;82.58;101692.44;2129179;27;45899;-66
2023/08/21 02:23:32;;;;;;;;;1.00;1.00;;;;;28.41;82.89;101698.88;2125195;27;46722;-66
2023/08/21 02:24:32;;;;;;;;;1.00;1.00;;;;;28.38;83.11;101685.50;2126686;27;46840;-66
2023/08/21 02:25:32;;;;;;;;;1.67;1.00;;;;;28.41;83.15;101693.41;2128781;27;46289;-65
2023/08/21 02:26:33;;;;;;;;;0.00;0.00;;;;;28.41;83.29;101696.16;2128754;27;46835;-66
2023/08/21 02:27:33;;;;;;;;;0.00;0.00;;;;;28.38;83.35;101686.34;2129008;27;46586;-66
2023/08/21 02:28:33;;;;;;;;;0.00;0.00;;;;;28.38;83.39;101694.53;2128864;27;46718;-66
2023/08/21 02:29:34;;;;;;;;;0.00;0.00;;;;;28.40;83.22;101697.16;2128522;27;46657;-66
2023/08/21 02:30:34;;;;;;;;;0.00;0.00;;;;;28.39;83.06;101687.22;2127327;27;46411;-66
2023/08/21 02:31:34;;;;;;;;;0.33;0.33;;;;;28.40;83.51;101691.69;2124650;27;46856;-66
2023/08/21 02:32:35;;;;;;;;;0.00;0.00;;;;;28.40;83.59;101694.41;2125254;27;46602;-66
2023/08/21 02:33:35;;;;;;;;;1.00;1.00;;;;;28.37;83.20;101695.53;2119729;27;46610;-65
2023/08/21 02:34:36;;;;;;;;;0.00;0.00;;;;;28.35;83.47;101694.81;2119850;27;46686;-66
2023/08/21 02:35:36;;;;;;;;;0.67;0.00;;;;;28.34;83.31;101693.06;2125507;27;46191;-66
2023/08/21 02:36:36;;;;;;;;;2.00;2.00;;;;;28.33;83.71;101688.59;2125065;27;46567;-66
2023/08/21 02:37:38;;;;;;;;;1.00;1.00;;;;;28.32;83.70;101686.84;2127434;27;46219;-65
2023/08/21 02:38:39;;;;;;;;;0.00;0.00;;;;;28.32;83.90;101689.56;2119535;27;47690;-65
2023/08/21 02:39:39;;;;;;;;;0.00;0.00;;;;;28.33;83.95;101695.91;2111228;27;46221;-66
2023/08/21 02:40:39;;;;;;;;;0.00;0.00;;;;;28.32;83.49;101689.56;2119252;27;46340;-66
2023/08/21 02:41:40;;;;;;;;;0.00;0.00;;;;;28.32;83.92;101683.25;2128329;27;46174;-65
2023/08/21 02:42:40;;;;;;;;;2.00;0.00;;;;;28.29;83.73;101684.38;2128539;27;46388;-65
2023/08/21 02:43:40;;;;;;;;;0.33;0.33;;;;;28.28;83.98;101690.81;2128780;27;46643;-65
2023/08/21 02:44:41;;;;;;;;;0.00;0.00;;;;;28.27;84.41;101685.50;2129067;27;46523;-65
2023/08/21 02:45:41;;;;;;;;;1.33;0.33;;;;;28.26;84.29;101681.84;2129349;27;46716;-65
2023/08/21 02:46:41;;;;;;;;;0.00;0.00;;;;;28.25;84.15;101684.72;2128548;27;46735;-65
2023/08/21 02:47:42;;;;;;;;;0.67;0.00;;;;;28.24;83.93;101685.72;2125647;27;46233;-65
2023/08/21 02:48:42;;;;;;;;;0.67;0.67;;;;;28.22;84.59;101693.16;2124476;27;46182;-65
2023/08/21 02:49:43;;;;;;;;;2.00;2.00;;;;;28.21;84.32;101691.41;2128879;27;46635;-66
2023/08/21 02:50:43;;;;;;;;;1.00;1.00;;;;;28.19;84.27;101693.38;2091925;28;46233;-66
2023/08/21 02:51:44;;;;;;;;;1.00;1.00;;;;;28.19;84.71;101694.25;2093746;28;46541;-66
2023/08/21 02:52:44;;;;;;;;;3.33;3.33;;;;;28.17;84.42;101696.22;2101770;28;46003;-66
2023/08/21 02:53:44;;;;;;;;;2.67;2.67;;;;;28.15;84.38;101688.19;2101217;28;46639;-66
2023/08/21 02:54:45;;;;;;;;;1.00;1.00;;;;;28.17;84.65;101692.63;2101951;28;46841;-66
2023/08/21 02:55:45;;;;;;;;;1.00;1.00;;;;;28.16;84.97;101689.03;2102302;28;46124;-66
2023/08/21 02:56:45;;;;;;;;;2.00;2.00;;;;;28.16;84.20;101691.78;2085243;28;46458;-65
2023/08/21 02:57:46;;;;;;;;;4.00;3.00;;;;;28.15;84.32;101685.44;2085326;28;46602;-66
2023/08/21 02:58:46;;;;;;;;;4.00;4.00;;;;;28.18;84.90;101697.97;2101485;28;46692;-65
2023/08/21 02:59:46;;;;;;;;;3.00;3.00;;;;;28.18;84.87;101688.91;2102058;28;46611;-66
2023/08/21 03:00:47;;;;;;;;;3.00;3.00;;;;;28.17;84.38;101690.78;2102205;28;46228;-65
2023/08/21 03:01:47;;;;;;;;;6.00;5.00;;;;;28.15;84.37;101688.19;2101941;28;46975;-66
2023/08/21 03:02:48;;;;;;;;;5.33;4.33;;;;;28.15;83.89;101693.63;2093741;28;47148;-66
2023/08/21 03:03:48;;;;;;;;;4.00;4.00;;;;;28.16;84.90;101689.03;2102861;27;46603;-66
2023/08/21 03:04:49;;;;;;;;;3.33;2.67;;;;;28.13;84.77;101681.97;2095987;28;46741;-66
2023/08/21 03:05:49;;;;;;;;;3.25;3.25;;;;;28.12;84.69;101685.69;2102071;28;46860;-66
2023/08/21 03:06:50;;;;;;;;;3.00;3.00;;;;;28.13;84.85;101694.75;2101636;28;46595;-66
2023/08/21 03:07:50;;;;;;;;;3.00;3.00;;;;;28.11;84.69;101694.00;2102917;27;45736;-65
2023/08/21 03:08:50;;;;;;;;;3.00;2.00;;;;;28.12;85.19;101698.47;2100690;27;46793;-65
2023/08/21 03:09:51;;;;;;;;;4.00;4.00;;;;;28.12;85.20;101696.63;2097966;28;46764;-65
2023/08/21 03:10:51;;;;;;;;;3.00;3.00;;;;;28.13;85.25;101695.63;2097915;28;46326;-65
2023/08/21 03:11:51;;;;;;;;;5.33;5.33;;;;;28.13;85.12;101700.22;2093477;28;46377;-65
2023/08/21 03:12:52;;;;;;;;;5.33;5.33;;;;;28.13;85.17;101692.03;2093442;28;46515;-65
2023/08/21 03:13:52;;;;;;;;;6.33;5.67;;;;;28.14;85.09;101691.03;2095481;28;46307;-65
2023/08/21 03:14:52;;;;;;;;;4.00;4.00;;;;;28.11;85.07;101681.25;2097828;28;46361;-65
2023/08/21 03:15:53;;;;;;;;;8.67;8.33;;;;;28.11;85.07;101691.28;2093580;28;46300;-66
2023/08/21 03:16:53;;;;;;;;;7.33;6.00;;;;;28.09;85.13;101688.69;2092987;28;46266;-65
2023/08/21 03:17:53;;;;;;;;;8.00;8.00;;;;;28.09;84.86;101685.97;2098447;28;45045;-66
2023/08/21 03:18:58;;;;;;;;;9.33;8.00;;;;;28.08;85.05;101680.63;2102023;28;46228;-65
2023/08/21 03:19:59;;;;;;;;;8.25;8.25;;;;;28.07;85.05;101684.31;2101678;28;46467;-66
2023/08/21 03:20:59;;;;;;;;;0.00;0.00;;;;;28.06;85.57;101686.19;2101842;28;46852;-66
2023/08/21 03:21:59;;;;;;;;;10.00;10.00;;;;;28.04;85.09;101685.44;2091520;27;46239;-66
2023/08/21 03:23:00;;;;;;;;;11.67;11.00;;;;;28.01;84.95;101680.22;2118976;27;47198;-65
2023/08/21 03:24:01;;;;;;;;;10.00;8.67;;;;;28.03;85.52;101678.25;2113602;27;46810;-64
2023/08/21 03:25:01;;;;;;;;;10.00;10.00;;;;;28.03;85.36;101688.28;2113053;27;46495;-66
2023/08/21 03:26:01;;;;;;;;;9.00;9.00;;;;;28.03;85.43;101682.84;2115834;27;46709;-66
2023/08/21 03:27:02;;;;;;;;;11.25;11.00;;;;;28.04;85.36;101688.16;2120122;27;46324;-65
2023/08/21 03:28:03;;;;;;;;;12.50;12.00;;;;;28.02;85.22;101686.56;2121788;27;46154;-65
2023/08/21 03:29:03;;;;;;;;;2.75;2.75;;;;;28.03;85.67;101688.28;2122222;27;46859;-66
2023/08/21 03:30:04;;;;;;;;;11.00;10.33;;;;;28.02;85.42;101689.28;2121529;27;46313;-66
2023/08/21 03:31:04;;;;;;;;;12.00;11.00;;;;;27.99;85.33;101684.94;2118582;27;45652;-66
2023/08/21 03:32:05;;;;;;;;;11.00;10.50;;;;;28.00;85.56;101688.53;2108728;27;46224;-66
2023/08/21 03:33:05;;;;;;;;;13.67;13.33;;;;;28.00;85.75;101685.81;2113182;27;46832;-66
2023/08/21 03:34:05;;;;;;;;;3.00;3.00;;;;;28.00;85.53;101688.53;2121436;27;46546;-66
2023/08/21 03:35:06;;;;;;;;;7.67;7.67;;;;;28.01;85.68;101693.00;2121919;27;46653;-65
2023/08/21 03:36:07;;;;;;;;;12.67;12.67;;;;;28.01;85.69;101690.28;2121785;27;46858;-66
2023/08/21 03:37:07;;;;;;;;;8.00;7.67;;;;;27.99;85.79;101695.00;2113087;27;45687;-64
2023/08/21 03:38:08;;;;;;;;;6.67;5.67;;;;;27.98;85.74;101696.00;2113117;27;45711;-65
2023/08/21 03:39:08;;;;;;;;;9.00;7.33;;;;;27.98;85.78;101691.41;2104341;28;46281;-66
2023/08/21 03:40:09;;;;;;;;;9.33;7.67;;;;;27.96;85.86;101685.19;2094228;28;46651;-66
2023/08/21 03:41:09;;;;;;;;;6.00;6.00;;;;;27.98;85.68;101690.53;2099655;28;46544;-67
2023/08/21 03:42:09;;;;;;;;;6.33;6.33;;;;;27.98;86.12;101688.66;2118060;27;46539;-65
2023/08/21 03:43:10;;;;;;;;;8.33;7.00;;;;;27.98;85.65;101687.81;2122060;27;46534;-66
2023/08/21 03:44:10;;;;;;;;;8.00;8.00;;;;;27.96;85.88;101690.66;2117134;27;46363;-66
2023/08/21 03:45:10;;;;;;;;;8.67;7.33;;;;;27.98;85.97;101687.81;2122764;27;46186;-65
2023/08/21 03:46:11;;;;;;;;;6.00;6.00;;;;;27.97;86.05;101697.84;2122193;27;46854;-65
2023/08/21 03:47:13;;;;;;;;;9.67;9.00;;;;;27.98;86.42;101698.72;2122545;27;46736;-66
2023/08/21 03:48:14;;;;;;;;;7.75;7.00;;;;;27.96;86.01;101685.19;2122610;27;46365;-65
2023/08/21 03:49:14;;;;;;;;;7.00;7.00;;;;;27.97;86.07;101695.13;2122304;27;46294;-66
2023/08/21 03:50:14;;;;;;;;;5.00;5.00;;;;;27.98;85.92;101698.72;2095774;28;46311;-66
2023/08/21 03:51:15;;;;;;;;;7.00;5.00;;;;;27.97;86.29;101696.97;2095970;28;46236;-66
2023/08/21 03:52:15;;;;;;;;;4.33;3.33;;;;;27.95;86.12;101688.91;2113895;27;45600;-66
2023/08/21 03:53:15;;;;;;;;;5.00;5.00;;;;;27.96;86.08;101692.53;2114283;27;46581;-67
2023/08/21 03:54:16;;;;;;;;;6.67;5.33;;;;;27.95;85.95;101696.22;2114259;27;46854;-67
2023/08/21 03:55:16;;;;;;;;;8.00;7.00;;;;;27.95;86.31;101690.75;2120724;27;46331;-67
2023/08/21 03:56:16;;;;;;;;;6.00;5.00;;;;;27.95;86.14;101699.84;2113335;27;46282;-67
2023/08/21 03:57:17;;;;;;;;;4.00;4.00;;;;;27.93;85.83;101698.19;2113584;27;46624;-67
2023/08/21 03:58:17;;;;;;;;;4.33;4.33;;;;;27.93;85.85;101698.19;2117564;27;45559;-65
2023/08/21 03:59:17;;;;;;;;;4.67;4.67;;;;;27.91;86.36;101695.59;2117323;27;46305;-66
2023/08/21 04:00:18;;;;;;;;;5.67;5.00;;;;;27.91;86.39;101695.59;2122808;27;46340;-68
2023/08/21 04:01:18;;;;;;;;;5.00;5.00;;;;;27.92;86.32;101696.47;2122965;27;46680;-67
2023/08/21 04:02:18;;;;;;;;;2.00;2.00;;;;;27.93;86.29;101703.66;2123049;27;45553;-66
2023/08/21 04:03:19;;;;;;;;;5.00;3.00;;;;;27.92;86.56;101691.00;2122986;27;46314;-66
2023/08/21 04:04:20;;;;;;;;;4.00;3.50;;;;;27.94;86.55;101700.78;2122533;27;46521;-65
2023/08/21 04:05:20;;;;;;;;;4.33;4.33;;;;;27.89;86.21;101693.97;2123024;27;45100;-66
2023/08/21 04:06:20;;;;;;;;;4.00;3.67;;;;;27.94;86.23;101694.47;2123120;27;45827;-66
2023/08/21 04:07:21;;;;;;;;;5.00;5.00;;;;;27.94;86.40;101683.56;2122592;27;46690;-65
2023/08/21 04:08:21;;;;;;;;;4.00;4.00;;;;;27.94;86.29;101695.34;2113550;27;46156;-65
2023/08/21 04:09:22;;;;;;;;;4.00;4.00;;;;;27.94;86.32;101683.56;2113338;27;46669;-66
2023/08/21 04:10:22;;;;;;;;;3.67;2.00;;;;;27.94;86.31;101689.88;2122564;27;46509;-65
2023/08/21 04:11:22;;;;;;;;;4.33;4.33;;;;;27.94;86.61;101684.44;2122207;27;48012;-65
2023/08/21 04:12:23;;;;;;;;;2.00;2.00;;;;;27.93;86.24;101690.00;2122801;27;45493;-66
2023/08/21 04:13:23;;;;;;;;;3.67;2.67;;;;;27.93;86.19;101692.75;2122377;27;46165;-68
2023/08/21 04:14:23;;;;;;;;;3.33;3.33;;;;;27.91;86.38;101692.88;2121107;27;46261;-66
2023/08/21 04:15:24;;;;;;;;;5.67;4.00;;;;;27.91;86.37;101692.88;2120752;27;45841;-65
2023/08/21 04:16:25;;;;;;;;;3.75;3.75;;;;;27.89;86.38;101697.56;2122773;27;45646;-68
2023/08/21 04:17:25;;;;;;;;;4.00;4.00;;;;;27.88;85.98;101700.44;2122474;27;45877;-67
2023/08/21 04:18:25;;;;;;;;;3.00;3.00;;;;;27.85;85.75;101694.22;2111992;27;46556;-66
2023/08/21 04:19:29;;;;;;;;;5.00;3.33;;;;;27.83;85.98;101696.22;2105773;27;46267;-68
2023/08/21 04:20:30;;;;;;;;;6.25;2.25;;;;;27.81;86.42;101695.44;2110571;27;46251;-66
2023/08/21 04:21:31;;;;;;;;;3.00;3.00;;;;;27.81;86.33;101703.63;2122340;27;46302;-67
2023/08/21 04:22:31;;;;;;;;;2.00;2.00;;;;;27.82;86.29;101704.50;2122236;27;46126;-67
2023/08/21 04:23:31;;;;;;;;;3.67;3.67;;;;;27.81;86.20;101700.03;2104193;28;46270;-65
2023/08/21 04:24:32;;;;;;;;;3.33;3.33;;;;;27.82;86.56;101707.22;2103949;28;46794;-67
2023/08/21 04:25:32;;;;;;;;;3.67;3.67;;;;;27.81;86.47;101706.34;2122204;27;46778;-67
2023/08/21 04:26:32;;;;;;;;;4.67;3.67;;;;;27.81;86.84;101706.34;2119598;27;46522;-66
2023/08/21 04:27:33;;;;;;;;;5.67;4.00;;;;;27.80;86.38;101704.63;2123100;27;45909;-66
2023/08/21 04:28:33;;;;;;;;;2.33;2.33;;;;;27.81;86.76;101710.94;2122764;27;46439;-65
2023/08/21 04:29:38;;;;;;;;;1.33;1.33;;;;;27.81;86.30;101709.09;2128557;27;46240;-66
2023/08/21 04:30:43;;;;;;;;;4.00;3.00;;;;;27.81;86.71;101708.22;2115983;27;46510;-67
2023/08/21 04:31:43;;;;;;;;;3.50;3.50;;;;;27.81;86.56;101713.66;2115844;27;46114;-66
2023/08/21 04:32:43;;;;;;;;;1.67;1.67;;;;;27.80;86.68;101715.53;2120360;27;45832;-65
2023/08/21 04:33:44;;;;;;;;;4.00;3.00;;;;;27.79;86.36;101713.78;2122187;27;46395;-66
2023/08/21 04:34:44;;;;;;;;;4.00;4.00;;;;;27.78;87.12;101712.06;2122133;27;47065;-66
2023/08/21 04:35:44;;;;;;;;;2.67;2.00;;;;;27.77;86.75;101706.72;2117701;27;46488;-66
2023/08/21 04:36:44;;;;;;;;;8.00;7.00;;;;;27.79;86.73;101713.78;2118620;27;46324;-67
2023/08/21 04:37:47;;;;;;;;;2.00;2.00;;;;;27.79;86.93;101716.53;2122247;27;46231;-66
2023/08/21 04:38:47;;;;;;;;;3.75;3.75;;;;;27.78;87.04;101716.66;2121867;27;46376;-66
2023/08/21 04:39:51;;;;;;;;;3.00;3.00;;;;;27.77;86.97;101714.91;2122604;27;46541;-66
2023/08/21 04:40:52;;;;;;;;;1.00;1.00;;;;;27.75;86.59;101719.63;2122301;27;46282;-66